sensor_id;sensor_type;location;lat;lon;timestamp;P1;durP1;ratioP1;P2;durP2;ratioP2
44606;SDS011;30315;46.072;14.474;2023-04-25T00:00:42;7.22;;;6.53;;
44606;SDS011;30315;46.072;14.474;2023-04-25T00:04:40;7.55;;;6.95;;
44606;SDS011;30315;46.072;14.474;2023-04-25T00:07:25;8.25;;;7.65;;
44606;SDS011;30315;46.072;14.474;2023-04-25T00:10:26;8.25;;;7.55;;
44606;SDS011;30315;46.072;14.474;2023-04-25T00:13:23;8.68;;;7.68;;
44606;SDS011;30315;46.072;14.474;2023-04-25T00:16:14;8.20;;;7.50;;
44606;SDS011;30315;46.072;14.474;2023-04-25T00:18:54;7.40;;;6.83;;
44606;SDS011;30315;46.072;14.474;2023-04-25T00:25:51;9.30;;;7.20;;
44606;SDS011;30315;46.072;14.474;2023-04-25T00:28:56;7.90;;;7.10;;
44606;SDS011;30315;46.072;14.474;2023-04-25T00:31:50;7.90;;;7.20;;
44606;SDS011;30315;46.072;14.474;2023-04-25T00:34:50;10.32;;;7.10;;
44606;SDS011;30315;46.072;14.474;2023-04-25T00:42:04;7.80;;;7.10;;
44606;SDS011;30315;46.072;14.474;2023-04-25T00:45:23;12.23;;;7.43;;
44606;SDS011;30315;46.072;14.474;2023-04-25T00:48:29;7.68;;;7.07;;
44606;SDS011;30315;46.072;14.474;2023-04-25T00:51:27;8.75;;;7.53;;
44606;SDS011;30315;46.072;14.474;2023-04-25T00:54:34;10.52;;;9.52;;
44606;SDS011;30315;46.072;14.474;2023-04-25T00:57:28;10.10;;;9.05;;
44606;SDS011;30315;46.072;14.474;2023-04-25T01:00:41;8.82;;;8.05;;
44606;SDS011;30315;46.072;14.474;2023-04-25T01:03:49;10.55;;;9.45;;
44606;SDS011;30315;46.072;14.474;2023-04-25T01:07:04;10.23;;;9.25;;
44606;SDS011;30315;46.072;14.474;2023-04-25T01:09:37;11.65;;;10.55;;
44606;SDS011;30315;46.072;14.474;2023-04-25T01:12:58;12.27;;;10.98;;
44606;SDS011;30315;46.072;14.474;2023-04-25T01:16:33;13.95;;;12.45;;
44606;SDS011;30315;46.072;14.474;2023-04-25T01:19:34;14.63;;;12.30;;
44606;SDS011;30315;46.072;14.474;2023-04-25T01:26:20;15.80;;;12.75;;
44606;SDS011;30315;46.072;14.474;2023-04-25T01:29:31;16.77;;;14.32;;
44606;SDS011;30315;46.072;14.474;2023-04-25T01:33:07;19.52;;;15.73;;
44606;SDS011;30315;46.072;14.474;2023-04-25T01:35:55;18.33;;;16.13;;
44606;SDS011;30315;46.072;14.474;2023-04-25T01:38:54;19.42;;;16.08;;
44606;SDS011;30315;46.072;14.474;2023-04-25T01:48:54;19.50;;;16.20;;
44606;SDS011;30315;46.072;14.474;2023-04-25T01:51:56;19.27;;;15.52;;
44606;SDS011;30315;46.072;14.474;2023-04-25T01:54:54;19.77;;;15.73;;
44606;SDS011;30315;46.072;14.474;2023-04-25T01:58:18;22.25;;;17.25;;
44606;SDS011;30315;46.072;14.474;2023-04-25T02:04:43;19.90;;;16.08;;
44606;SDS011;30315;46.072;14.474;2023-04-25T02:12:54;19.10;;;15.63;;
44606;SDS011;30315;46.072;14.474;2023-04-25T02:16:16;17.40;;;15.05;;
44606;SDS011;30315;46.072;14.474;2023-04-25T02:22:54;18.23;;;14.77;;
44606;SDS011;30315;46.072;14.474;2023-04-25T02:25:22;17.73;;;15.07;;
44606;SDS011;30315;46.072;14.474;2023-04-25T02:27:49;16.52;;;13.27;;
44606;SDS011;30315;46.072;14.474;2023-04-25T02:30:17;15.40;;;13.43;;
44606;SDS011;30315;46.072;14.474;2023-04-25T02:32:44;16.13;;;13.68;;
44606;SDS011;30315;46.072;14.474;2023-04-25T02:35:12;14.57;;;12.65;;
44606;SDS011;30315;46.072;14.474;2023-04-25T02:37:39;15.82;;;14.05;;
44606;SDS011;30315;46.072;14.474;2023-04-25T02:40:06;16.60;;;14.35;;
44606;SDS011;30315;46.072;14.474;2023-04-25T02:42:34;16.98;;;13.98;;
44606;SDS011;30315;46.072;14.474;2023-04-25T02:45:01;15.63;;;13.27;;
44606;SDS011;30315;46.072;14.474;2023-04-25T02:47:29;14.45;;;12.75;;
44606;SDS011;30315;46.072;14.474;2023-04-25T02:49:56;15.50;;;13.82;;
44606;SDS011;30315;46.072;14.474;2023-04-25T02:52:23;17.33;;;15.10;;
44606;SDS011;30315;46.072;14.474;2023-04-25T02:54:58;16.25;;;14.55;;
44606;SDS011;30315;46.072;14.474;2023-04-25T02:57:27;18.55;;;15.63;;
44606;SDS011;30315;46.072;14.474;2023-04-25T02:59:55;19.85;;;14.18;;
44606;SDS011;30315;46.072;14.474;2023-04-25T03:02:22;16.38;;;13.90;;
44606;SDS011;30315;46.072;14.474;2023-04-25T03:04:49;17.25;;;14.10;;
44606;SDS011;30315;46.072;14.474;2023-04-25T03:07:16;17.27;;;14.43;;
44606;SDS011;30315;46.072;14.474;2023-04-25T03:09:43;15.75;;;13.98;;
44606;SDS011;30315;46.072;14.474;2023-04-25T03:12:10;17.00;;;14.10;;
44606;SDS011;30315;46.072;14.474;2023-04-25T03:14:37;16.42;;;13.13;;
44606;SDS011;30315;46.072;14.474;2023-04-25T03:17:04;16.27;;;13.32;;
44606;SDS011;30315;46.072;14.474;2023-04-25T03:19:34;16.25;;;14.07;;
44606;SDS011;30315;46.072;14.474;2023-04-25T03:22:01;18.98;;;15.13;;
44606;SDS011;30315;46.072;14.474;2023-04-25T03:24:28;18.65;;;14.38;;
44606;SDS011;30315;46.072;14.474;2023-04-25T03:26:55;18.88;;;14.60;;
44606;SDS011;30315;46.072;14.474;2023-04-25T03:29:22;17.65;;;14.38;;
44606;SDS011;30315;46.072;14.474;2023-04-25T03:31:52;22.10;;;15.45;;
44606;SDS011;30315;46.072;14.474;2023-04-25T03:34:19;19.10;;;15.90;;
44606;SDS011;30315;46.072;14.474;2023-04-25T03:36:48;17.55;;;13.40;;
44606;SDS011;30315;46.072;14.474;2023-04-25T03:39:15;16.10;;;13.40;;
44606;SDS011;30315;46.072;14.474;2023-04-25T03:41:47;15.93;;;13.15;;
44606;SDS011;30315;46.072;14.474;2023-04-25T03:44:16;18.30;;;14.25;;
44606;SDS011;30315;46.072;14.474;2023-04-25T03:46:43;16.98;;;14.30;;
44606;SDS011;30315;46.072;14.474;2023-04-25T03:49:11;13.90;;;12.50;;
44606;SDS011;30315;46.072;14.474;2023-04-25T03:52:07;14.57;;;12.75;;
44606;SDS011;30315;46.072;14.474;2023-04-25T03:54:38;15.05;;;13.38;;
44606;SDS011;30315;46.072;14.474;2023-04-25T03:57:08;14.45;;;12.82;;
44606;SDS011;30315;46.072;14.474;2023-04-25T03:59:38;12.20;;;10.80;;
44606;SDS011;30315;46.072;14.474;2023-04-25T04:02:07;12.70;;;10.70;;
44606;SDS011;30315;46.072;14.474;2023-04-25T04:04:35;11.30;;;10.10;;
44606;SDS011;30315;46.072;14.474;2023-04-25T04:07:03;13.32;;;10.75;;
44606;SDS011;30315;46.072;14.474;2023-04-25T04:09:34;14.20;;;10.77;;
44606;SDS011;30315;46.072;14.474;2023-04-25T04:12:05;10.52;;;9.50;;
44606;SDS011;30315;46.072;14.474;2023-04-25T04:14:34;11.63;;;10.43;;
44606;SDS011;30315;46.072;14.474;2023-04-25T04:17:01;14.15;;;12.15;;
44606;SDS011;30315;46.072;14.474;2023-04-25T04:19:28;14.02;;;12.00;;
44606;SDS011;30315;46.072;14.474;2023-04-25T04:22:04;14.20;;;11.95;;
44606;SDS011;30315;46.072;14.474;2023-04-25T04:24:31;14.82;;;11.75;;
44606;SDS011;30315;46.072;14.474;2023-04-25T04:27:02;16.00;;;12.57;;
44606;SDS011;30315;46.072;14.474;2023-04-25T04:29:40;16.02;;;12.73;;
44606;SDS011;30315;46.072;14.474;2023-04-25T04:32:30;15.95;;;13.13;;
44606;SDS011;30315;46.072;14.474;2023-04-25T04:34:59;17.98;;;14.88;;
44606;SDS011;30315;46.072;14.474;2023-04-25T04:37:26;19.30;;;14.48;;
44606;SDS011;30315;46.072;14.474;2023-04-25T04:39:53;17.45;;;14.00;;
44606;SDS011;30315;46.072;14.474;2023-04-25T04:42:28;16.33;;;14.32;;
44606;SDS011;30315;46.072;14.474;2023-04-25T04:45:13;14.18;;;12.60;;
44606;SDS011;30315;46.072;14.474;2023-04-25T04:48:00;14.25;;;12.15;;
44606;SDS011;30315;46.072;14.474;2023-04-25T04:50:47;17.20;;;12.93;;
44606;SDS011;30315;46.072;14.474;2023-04-25T04:53:40;15.32;;;13.30;;
44606;SDS011;30315;46.072;14.474;2023-04-25T04:56:15;16.70;;;12.93;;
44606;SDS011;30315;46.072;14.474;2023-04-25T05:01:34;15.90;;;13.23;;
44606;SDS011;30315;46.072;14.474;2023-04-25T05:04:22;16.25;;;12.57;;
44606;SDS011;30315;46.072;14.474;2023-04-25T05:06:54;14.30;;;12.13;;
44606;SDS011;30315;46.072;14.474;2023-04-25T05:09:30;12.23;;;10.88;;
44606;SDS011;30315;46.072;14.474;2023-04-25T05:12:21;13.30;;;10.40;;
44606;SDS011;30315;46.072;14.474;2023-04-25T05:15:24;12.07;;;10.30;;
44606;SDS011;30315;46.072;14.474;2023-04-25T05:18:09;10.23;;;9.23;;
44606;SDS011;30315;46.072;14.474;2023-04-25T05:21:05;9.43;;;8.63;;
44606;SDS011;30315;46.072;14.474;2023-04-25T05:23:53;10.52;;;9.52;;
44606;SDS011;30315;46.072;14.474;2023-04-25T05:26:44;9.23;;;8.40;;
44606;SDS011;30315;46.072;14.474;2023-04-25T05:29:47;9.25;;;8.40;;
44606;SDS011;30315;46.072;14.474;2023-04-25T05:32:27;9.07;;;8.23;;
44606;SDS011;30315;46.072;14.474;2023-04-25T05:34:54;9.27;;;8.35;;
44606;SDS011;30315;46.072;14.474;2023-04-25T05:37:25;9.30;;;8.40;;
44606;SDS011;30315;46.072;14.474;2023-04-25T05:39:56;9.18;;;8.38;;
44606;SDS011;30315;46.072;14.474;2023-04-25T05:42:43;9.48;;;8.57;;
44606;SDS011;30315;46.072;14.474;2023-04-25T05:45:19;9.57;;;8.68;;
44606;SDS011;30315;46.072;14.474;2023-04-25T05:48:09;10.07;;;9.10;;
44606;SDS011;30315;46.072;14.474;2023-04-25T05:50:56;11.50;;;10.40;;
44606;SDS011;30315;46.072;14.474;2023-04-25T05:53:43;12.70;;;11.02;;
44606;SDS011;30315;46.072;14.474;2023-04-25T05:56:11;11.52;;;10.43;;
44606;SDS011;30315;46.072;14.474;2023-04-25T05:58:39;11.35;;;10.27;;
44606;SDS011;30315;46.072;14.474;2023-04-25T06:01:08;11.65;;;10.48;;
44606;SDS011;30315;46.072;14.474;2023-04-25T06:03:35;11.30;;;10.10;;
44606;SDS011;30315;46.072;14.474;2023-04-25T06:06:04;10.73;;;9.67;;
44606;SDS011;30315;46.072;14.474;2023-04-25T06:08:32;10.45;;;9.45;;
44606;SDS011;30315;46.072;14.474;2023-04-25T06:10:59;11.70;;;10.57;;
44606;SDS011;30315;46.072;14.474;2023-04-25T06:13:26;11.02;;;9.95;;
44606;SDS011;30315;46.072;14.474;2023-04-25T06:15:54;11.07;;;10.07;;
44606;SDS011;30315;46.072;14.474;2023-04-25T06:18:21;10.60;;;9.68;;
44606;SDS011;30315;46.072;14.474;2023-04-25T06:20:48;10.57;;;9.55;;
44606;SDS011;30315;46.072;14.474;2023-04-25T06:23:17;10.57;;;9.57;;
44606;SDS011;30315;46.072;14.474;2023-04-25T06:25:51;10.63;;;9.55;;
44606;SDS011;30315;46.072;14.474;2023-04-25T06:28:18;12.15;;;10.40;;
44606;SDS011;30315;46.072;14.474;2023-04-25T06:30:45;12.23;;;10.93;;
44606;SDS011;30315;46.072;14.474;2023-04-25T06:33:16;11.57;;;10.50;;
44606;SDS011;30315;46.072;14.474;2023-04-25T06:35:44;12.52;;;11.27;;
44606;SDS011;30315;46.072;14.474;2023-04-25T06:38:14;13.70;;;12.30;;
44606;SDS011;30315;46.072;14.474;2023-04-25T06:40:45;13.57;;;12.18;;
44606;SDS011;30315;46.072;14.474;2023-04-25T06:43:13;12.52;;;11.38;;
44606;SDS011;30315;46.072;14.474;2023-04-25T06:46:03;13.05;;;11.75;;
44606;SDS011;30315;46.072;14.474;2023-04-25T06:48:32;12.82;;;11.48;;
44606;SDS011;30315;46.072;14.474;2023-04-25T06:50:59;12.90;;;11.70;;
44606;SDS011;30315;46.072;14.474;2023-04-25T06:53:27;14.68;;;12.00;;
44606;SDS011;30315;46.072;14.474;2023-04-25T06:55:58;13.32;;;12.05;;
44606;SDS011;30315;46.072;14.474;2023-04-25T06:58:34;13.60;;;12.20;;
44606;SDS011;30315;46.072;14.474;2023-04-25T07:01:12;15.43;;;13.75;;
44606;SDS011;30315;46.072;14.474;2023-04-25T07:03:39;14.05;;;12.73;;
44606;SDS011;30315;46.072;14.474;2023-04-25T07:06:12;13.52;;;12.10;;
44606;SDS011;30315;46.072;14.474;2023-04-25T07:08:39;12.88;;;11.57;;
44606;SDS011;30315;46.072;14.474;2023-04-25T07:11:06;14.38;;;12.95;;
44606;SDS011;30315;46.072;14.474;2023-04-25T07:13:35;13.73;;;12.50;;
44606;SDS011;30315;46.072;14.474;2023-04-25T07:16:02;16.48;;;12.68;;
44606;SDS011;30315;46.072;14.474;2023-04-25T07:18:31;13.30;;;12.05;;
44606;SDS011;30315;46.072;14.474;2023-04-25T07:20:59;13.82;;;12.52;;
44606;SDS011;30315;46.072;14.474;2023-04-25T07:23:27;13.70;;;12.32;;
44606;SDS011;30315;46.072;14.474;2023-04-25T07:25:54;13.38;;;11.98;;
44606;SDS011;30315;46.072;14.474;2023-04-25T07:28:24;12.20;;;10.93;;
44606;SDS011;30315;46.072;14.474;2023-04-25T07:30:51;12.80;;;11.52;;
44606;SDS011;30315;46.072;14.474;2023-04-25T07:33:18;12.20;;;11.13;;
44606;SDS011;30315;46.072;14.474;2023-04-25T07:35:46;12.48;;;11.30;;
44606;SDS011;30315;46.072;14.474;2023-04-25T07:38:13;11.10;;;10.00;;
44606;SDS011;30315;46.072;14.474;2023-04-25T07:40:41;10.63;;;9.73;;
44606;SDS011;30315;46.072;14.474;2023-04-25T07:43:10;10.35;;;9.40;;
44606;SDS011;30315;46.072;14.474;2023-04-25T07:45:57;10.27;;;9.27;;
44606;SDS011;30315;46.072;14.474;2023-04-25T07:48:27;9.52;;;8.82;;
44606;SDS011;30315;46.072;14.474;2023-04-25T07:50:55;10.10;;;9.20;;
44606;SDS011;30315;46.072;14.474;2023-04-25T07:53:22;10.05;;;9.15;;
44606;SDS011;30315;46.072;14.474;2023-04-25T07:55:54;9.45;;;8.63;;
44606;SDS011;30315;46.072;14.474;2023-04-25T07:58:21;12.15;;;8.70;;
44606;SDS011;30315;46.072;14.474;2023-04-25T08:00:53;9.65;;;8.75;;
44606;SDS011;30315;46.072;14.474;2023-04-25T08:03:40;9.68;;;8.85;;
44606;SDS011;30315;46.072;14.474;2023-04-25T08:06:14;8.77;;;7.90;;
44606;SDS011;30315;46.072;14.474;2023-04-25T08:08:49;8.85;;;8.13;;
44606;SDS011;30315;46.072;14.474;2023-04-25T08:11:20;8.82;;;8.05;;
44606;SDS011;30315;46.072;14.474;2023-04-25T08:13:47;8.60;;;7.82;;
44606;SDS011;30315;46.072;14.474;2023-04-25T08:16:14;9.23;;;8.32;;
44606;SDS011;30315;46.072;14.474;2023-04-25T08:18:42;8.25;;;7.55;;
44606;SDS011;30315;46.072;14.474;2023-04-25T08:21:09;7.95;;;7.28;;
44606;SDS011;30315;46.072;14.474;2023-04-25T08:23:38;7.75;;;7.10;;
44606;SDS011;30315;46.072;14.474;2023-04-25T08:26:12;8.32;;;7.65;;
44606;SDS011;30315;46.072;14.474;2023-04-25T08:28:41;7.80;;;6.72;;
44606;SDS011;30315;46.072;14.474;2023-04-25T08:31:08;7.22;;;6.70;;
44606;SDS011;30315;46.072;14.474;2023-04-25T08:33:50;8.60;;;7.80;;
44606;SDS011;30315;46.072;14.474;2023-04-25T08:39:25;7.35;;;6.72;;
44606;SDS011;30315;46.072;14.474;2023-04-25T08:42:15;7.38;;;6.70;;
44606;SDS011;30315;46.072;14.474;2023-04-25T08:44:42;7.30;;;6.80;;
44606;SDS011;30315;46.072;14.474;2023-04-25T08:47:11;6.53;;;6.03;;
44606;SDS011;30315;46.072;14.474;2023-04-25T08:49:45;6.38;;;5.88;;
44606;SDS011;30315;46.072;14.474;2023-04-25T08:52:14;6.53;;;5.95;;
44606;SDS011;30315;46.072;14.474;2023-04-25T08:54:46;5.95;;;5.55;;
44606;SDS011;30315;46.072;14.474;2023-04-25T08:57:16;5.72;;;5.30;;
44606;SDS011;30315;46.072;14.474;2023-04-25T08:59:45;5.18;;;4.78;;
44606;SDS011;30315;46.072;14.474;2023-04-25T09:02:14;5.53;;;5.13;;
44606;SDS011;30315;46.072;14.474;2023-04-25T09:04:47;5.57;;;5.18;;
44606;SDS011;30315;46.072;14.474;2023-04-25T09:07:14;6.10;;;5.70;;
44606;SDS011;30315;46.072;14.474;2023-04-25T09:09:45;5.60;;;5.22;;
44606;SDS011;30315;46.072;14.474;2023-04-25T09:12:16;6.00;;;5.50;;
44606;SDS011;30315;46.072;14.474;2023-04-25T09:15:01;5.80;;;5.30;;
44606;SDS011;30315;46.072;14.474;2023-04-25T09:18:02;5.63;;;5.13;;
44606;SDS011;30315;46.072;14.474;2023-04-25T09:20:34;6.15;;;5.50;;
44606;SDS011;30315;46.072;14.474;2023-04-25T09:23:30;4.85;;;4.55;;
44606;SDS011;30315;46.072;14.474;2023-04-25T09:26:06;5.35;;;4.90;;
44606;SDS011;30315;46.072;14.474;2023-04-25T09:28:34;5.20;;;4.80;;
44606;SDS011;30315;46.072;14.474;2023-04-25T09:31:02;5.90;;;4.43;;
44606;SDS011;30315;46.072;14.474;2023-04-25T09:33:35;4.53;;;4.22;;
44606;SDS011;30315;46.072;14.474;2023-04-25T09:36:12;4.90;;;4.50;;
44606;SDS011;30315;46.072;14.474;2023-04-25T09:38:59;4.82;;;4.53;;
44606;SDS011;30315;46.072;14.474;2023-04-25T09:41:30;4.95;;;4.65;;
44606;SDS011;30315;46.072;14.474;2023-04-25T09:44:00;4.60;;;4.20;;
44606;SDS011;30315;46.072;14.474;2023-04-25T09:46:34;4.10;;;3.80;;
44606;SDS011;30315;46.072;14.474;2023-04-25T09:49:10;4.43;;;4.13;;
44606;SDS011;30315;46.072;14.474;2023-04-25T09:52:00;4.28;;;3.95;;
44606;SDS011;30315;46.072;14.474;2023-04-25T09:54:34;4.40;;;4.05;;
44606;SDS011;30315;46.072;14.474;2023-04-25T09:57:15;4.43;;;4.13;;
44606;SDS011;30315;46.072;14.474;2023-04-25T09:59:45;3.95;;;3.65;;
44606;SDS011;30315;46.072;14.474;2023-04-25T10:02:14;4.45;;;4.15;;
44606;SDS011;30315;46.072;14.474;2023-04-25T10:04:44;3.90;;;3.60;;
44606;SDS011;30315;46.072;14.474;2023-04-25T10:07:33;4.00;;;3.70;;
44606;SDS011;30315;46.072;14.474;2023-04-25T10:10:07;3.95;;;3.53;;
44606;SDS011;30315;46.072;14.474;2023-04-25T10:12:38;4.38;;;3.97;;
44606;SDS011;30315;46.072;14.474;2023-04-25T10:15:06;3.72;;;3.42;;
44606;SDS011;30315;46.072;14.474;2023-04-25T10:17:35;4.65;;;3.78;;
44606;SDS011;30315;46.072;14.474;2023-04-25T10:20:04;3.95;;;3.40;;
44606;SDS011;30315;46.072;14.474;2023-04-25T10:22:46;3.55;;;3.35;;
44606;SDS011;30315;46.072;14.474;2023-04-25T10:25:14;4.60;;;3.42;;
44606;SDS011;30315;46.072;14.474;2023-04-25T10:27:41;3.72;;;3.53;;
44606;SDS011;30315;46.072;14.474;2023-04-25T10:30:09;3.75;;;3.45;;
44606;SDS011;30315;46.072;14.474;2023-04-25T10:32:42;3.92;;;3.70;;
44606;SDS011;30315;46.072;14.474;2023-04-25T10:35:16;3.50;;;3.30;;
44606;SDS011;30315;46.072;14.474;2023-04-25T10:40:30;3.30;;;3.10;;
44606;SDS011;30315;46.072;14.474;2023-04-25T10:46:02;5.55;;;3.67;;
44606;SDS011;30315;46.072;14.474;2023-04-25T10:51:17;2.85;;;2.50;;
44606;SDS011;30315;46.072;14.474;2023-04-25T10:53:45;3.05;;;2.85;;
44606;SDS011;30315;46.072;14.474;2023-04-25T10:56:16;3.33;;;2.78;;
44606;SDS011;30315;46.072;14.474;2023-04-25T10:58:45;4.20;;;2.88;;
44606;SDS011;30315;46.072;14.474;2023-04-25T11:01:15;3.13;;;2.90;;
44606;SDS011;30315;46.072;14.474;2023-04-25T11:03:46;4.75;;;3.42;;
44606;SDS011;30315;46.072;14.474;2023-04-25T11:06:23;4.07;;;3.20;;
44606;SDS011;30315;46.072;14.474;2023-04-25T11:09:00;6.88;;;3.15;;
44606;SDS011;30315;46.072;14.474;2023-04-25T11:11:28;3.60;;;3.30;;
44606;SDS011;30315;46.072;14.474;2023-04-25T11:13:55;3.30;;;3.08;;
44606;SDS011;30315;46.072;14.474;2023-04-25T11:16:23;3.40;;;3.20;;
44606;SDS011;30315;46.072;14.474;2023-04-25T11:18:56;3.28;;;3.08;;
44606;SDS011;30315;46.072;14.474;2023-04-25T11:21:27;3.20;;;3.00;;
44606;SDS011;30315;46.072;14.474;2023-04-25T11:23:55;4.70;;;2.90;;
44606;SDS011;30315;46.072;14.474;2023-04-25T11:26:24;3.53;;;3.27;;
44606;SDS011;30315;46.072;14.474;2023-04-25T11:28:51;3.42;;;3.13;;
44606;SDS011;30315;46.072;14.474;2023-04-25T11:31:21;3.10;;;2.90;;
44606;SDS011;30315;46.072;14.474;2023-04-25T11:33:48;3.92;;;3.70;;
44606;SDS011;30315;46.072;14.474;2023-04-25T11:36:16;3.28;;;2.97;;
44606;SDS011;30315;46.072;14.474;2023-04-25T11:38:42;2.88;;;2.67;;
44606;SDS011;30315;46.072;14.474;2023-04-25T11:41:09;3.08;;;2.88;;
44606;SDS011;30315;46.072;14.474;2023-04-25T11:43:37;2.88;;;2.78;;
44606;SDS011;30315;46.072;14.474;2023-04-25T11:48:40;2.83;;;2.63;;
44606;SDS011;30315;46.072;14.474;2023-04-25T11:51:08;2.55;;;2.35;;
44606;SDS011;30315;46.072;14.474;2023-04-25T11:53:35;2.25;;;2.15;;
44606;SDS011;30315;46.072;14.474;2023-04-25T11:56:02;2.50;;;2.40;;
44606;SDS011;30315;46.072;14.474;2023-04-25T12:01:31;2.90;;;2.63;;
44606;SDS011;30315;46.072;14.474;2023-04-25T12:06:40;2.78;;;2.58;;
44606;SDS011;30315;46.072;14.474;2023-04-25T12:09:09;2.57;;;2.47;;
44606;SDS011;30315;46.072;14.474;2023-04-25T12:11:48;4.40;;;2.53;;
44606;SDS011;30315;46.072;14.474;2023-04-25T12:14:33;2.50;;;2.30;;
44606;SDS011;30315;46.072;14.474;2023-04-25T12:17:02;2.78;;;2.65;;
44606;SDS011;30315;46.072;14.474;2023-04-25T12:19:32;3.20;;;2.90;;
44606;SDS011;30315;46.072;14.474;2023-04-25T12:22:10;2.28;;;2.08;;
44606;SDS011;30315;46.072;14.474;2023-04-25T12:24:46;2.38;;;2.28;;
44606;SDS011;30315;46.072;14.474;2023-04-25T12:27:14;2.97;;;2.78;;
44606;SDS011;30315;46.072;14.474;2023-04-25T12:29:49;2.45;;;2.35;;
44606;SDS011;30315;46.072;14.474;2023-04-25T12:32:17;2.65;;;2.45;;
44606;SDS011;30315;46.072;14.474;2023-04-25T12:34:44;2.58;;;2.38;;
44606;SDS011;30315;46.072;14.474;2023-04-25T12:37:12;2.30;;;2.20;;
44606;SDS011;30315;46.072;14.474;2023-04-25T12:39:39;2.38;;;2.10;;
44606;SDS011;30315;46.072;14.474;2023-04-25T12:42:06;2.55;;;2.35;;
44606;SDS011;30315;46.072;14.474;2023-04-25T12:44:39;2.30;;;2.08;;
44606;SDS011;30315;46.072;14.474;2023-04-25T12:47:07;2.35;;;2.25;;
44606;SDS011;30315;46.072;14.474;2023-04-25T12:49:34;2.92;;;2.72;;
44606;SDS011;30315;46.072;14.474;2023-04-25T12:52:01;3.25;;;3.05;;
44606;SDS011;30315;46.072;14.474;2023-04-25T12:54:28;2.60;;;2.40;;
44606;SDS011;30315;46.072;14.474;2023-04-25T12:56:55;2.67;;;2.53;;
44606;SDS011;30315;46.072;14.474;2023-04-25T12:59:22;2.80;;;2.60;;
44606;SDS011;30315;46.072;14.474;2023-04-25T13:01:49;2.60;;;2.40;;
44606;SDS011;30315;46.072;14.474;2023-04-25T13:04:16;2.55;;;2.42;;
44606;SDS011;30315;46.072;14.474;2023-04-25T13:06:44;2.78;;;2.58;;
44606;SDS011;30315;46.072;14.474;2023-04-25T13:09:11;2.70;;;2.50;;
44606;SDS011;30315;46.072;14.474;2023-04-25T13:11:39;2.53;;;2.30;;
44606;SDS011;30315;46.072;14.474;2023-04-25T13:14:07;3.53;;;2.17;;
44606;SDS011;30315;46.072;14.474;2023-04-25T13:16:34;2.45;;;2.30;;
44606;SDS011;30315;46.072;14.474;2023-04-25T13:19:01;2.13;;;2.03;;
44606;SDS011;30315;46.072;14.474;2023-04-25T13:21:29;2.00;;;1.90;;
44606;SDS011;30315;46.072;14.474;2023-04-25T13:24:00;2.10;;;2.00;;
44606;SDS011;30315;46.072;14.474;2023-04-25T13:26:27;2.40;;;2.30;;
44606;SDS011;30315;46.072;14.474;2023-04-25T13:28:54;2.60;;;2.40;;
44606;SDS011;30315;46.072;14.474;2023-04-25T13:31:21;2.53;;;2.42;;
44606;SDS011;30315;46.072;14.474;2023-04-25T13:33:47;2.47;;;2.28;;
44606;SDS011;30315;46.072;14.474;2023-04-25T13:36:15;2.30;;;2.20;;
44606;SDS011;30315;46.072;14.474;2023-04-25T13:38:42;2.42;;;2.10;;
44606;SDS011;30315;46.072;14.474;2023-04-25T13:41:10;2.05;;;1.95;;
44606;SDS011;30315;46.072;14.474;2023-04-25T13:43:41;2.70;;;2.45;;
44606;SDS011;30315;46.072;14.474;2023-04-25T13:46:08;2.30;;;2.00;;
44606;SDS011;30315;46.072;14.474;2023-04-25T13:48:55;2.42;;;2.22;;
44606;SDS011;30315;46.072;14.474;2023-04-25T13:51:35;2.10;;;2.00;;
44606;SDS011;30315;46.072;14.474;2023-04-25T13:54:02;2.20;;;2.10;;
44606;SDS011;30315;46.072;14.474;2023-04-25T13:56:29;2.30;;;2.20;;
44606;SDS011;30315;46.072;14.474;2023-04-25T13:58:56;4.47;;;2.08;;
44606;SDS011;30315;46.072;14.474;2023-04-25T14:01:23;2.22;;;1.58;;
44606;SDS011;30315;46.072;14.474;2023-04-25T14:03:50;1.80;;;1.70;;
44606;SDS011;30315;46.072;14.474;2023-04-25T14:06:17;1.60;;;1.50;;
44606;SDS011;30315;46.072;14.474;2023-04-25T14:08:49;1.63;;;1.52;;
44606;SDS011;30315;46.072;14.474;2023-04-25T14:11:17;2.03;;;1.92;;
44606;SDS011;30315;46.072;14.474;2023-04-25T14:13:44;1.80;;;1.70;;
44606;SDS011;30315;46.072;14.474;2023-04-25T14:16:12;2.17;;;1.92;;
44606;SDS011;30315;46.072;14.474;2023-04-25T14:18:39;1.80;;;1.70;;
44606;SDS011;30315;46.072;14.474;2023-04-25T14:21:06;2.45;;;1.90;;
44606;SDS011;30315;46.072;14.474;2023-04-25T14:23:33;2.35;;;1.52;;
44606;SDS011;30315;46.072;14.474;2023-04-25T14:26:00;1.98;;;1.88;;
44606;SDS011;30315;46.072;14.474;2023-04-25T14:28:27;1.60;;;1.50;;
44606;SDS011;30315;46.072;14.474;2023-04-25T14:30:53;1.52;;;1.42;;
44606;SDS011;30315;46.072;14.474;2023-04-25T14:33:21;1.60;;;1.50;;
44606;SDS011;30315;46.072;14.474;2023-04-25T14:35:49;1.48;;;1.48;;
44606;SDS011;30315;46.072;14.474;2023-04-25T14:38:17;1.73;;;1.63;;
44606;SDS011;30315;46.072;14.474;2023-04-25T14:40:50;1.70;;;1.60;;
44606;SDS011;30315;46.072;14.474;2023-04-25T14:43:23;1.55;;;1.48;;
44606;SDS011;30315;46.072;14.474;2023-04-25T14:45:54;2.03;;;1.92;;
44606;SDS011;30315;46.072;14.474;2023-04-25T14:48:34;3.28;;;1.80;;
44606;SDS011;30315;46.072;14.474;2023-04-25T14:55:36;1.60;;;1.50;;
44606;SDS011;30315;46.072;14.474;2023-04-25T14:58:08;1.88;;;1.77;;
44606;SDS011;30315;46.072;14.474;2023-04-25T15:00:46;2.28;;;1.60;;
44606;SDS011;30315;46.072;14.474;2023-04-25T15:03:23;4.20;;;1.95;;
44606;SDS011;30315;46.072;14.474;2023-04-25T15:05:54;1.77;;;1.67;;
44606;SDS011;30315;46.072;14.474;2023-04-25T15:08:30;2.13;;;1.77;;
44606;SDS011;30315;46.072;14.474;2023-04-25T15:11:02;1.85;;;1.75;;
44606;SDS011;30315;46.072;14.474;2023-04-25T15:13:39;1.60;;;1.50;;
44606;SDS011;30315;46.072;14.474;2023-04-25T15:16:10;1.77;;;1.67;;
44606;SDS011;30315;46.072;14.474;2023-04-25T15:18:47;1.63;;;1.58;;
44606;SDS011;30315;46.072;14.474;2023-04-25T15:21:19;1.55;;;1.45;;
44606;SDS011;30315;46.072;14.474;2023-04-25T15:24:29;3.17;;;1.48;;
44606;SDS011;30315;46.072;14.474;2023-04-25T15:30:13;2.08;;;1.60;;
44606;SDS011;30315;46.072;14.474;2023-04-25T15:37:34;1.63;;;1.52;;
44606;SDS011;30315;46.072;14.474;2023-04-25T15:44:14;1.60;;;1.50;;
44606;SDS011;30315;46.072;14.474;2023-04-25T15:46:49;1.88;;;1.77;;
44606;SDS011;30315;46.072;14.474;2023-04-25T15:49:23;2.17;;;1.95;;
44606;SDS011;30315;46.072;14.474;2023-04-25T15:57:49;3.55;;;2.58;;
44606;SDS011;30315;46.072;14.474;2023-04-25T16:00:22;2.22;;;2.05;;
44606;SDS011;30315;46.072;14.474;2023-04-25T16:02:57;2.13;;;2.03;;
44606;SDS011;30315;46.072;14.474;2023-04-25T16:05:35;2.95;;;2.30;;
44606;SDS011;30315;46.072;14.474;2023-04-25T16:08:23;4.68;;;2.22;;
44606;SDS011;30315;46.072;14.474;2023-04-25T16:15:44;1.95;;;1.85;;
44606;SDS011;30315;46.072;14.474;2023-04-25T16:18:17;1.90;;;1.80;;
44606;SDS011;30315;46.072;14.474;2023-04-25T16:20:47;2.47;;;1.80;;
44606;SDS011;30315;46.072;14.474;2023-04-25T16:23:15;5.20;;;1.98;;
44606;SDS011;30315;46.072;14.474;2023-04-25T16:25:45;2.03;;;1.92;;
44606;SDS011;30315;46.072;14.474;2023-04-25T16:28:17;1.80;;;1.70;;
44606;SDS011;30315;46.072;14.474;2023-04-25T16:30:45;1.83;;;1.73;;
44606;SDS011;30315;46.072;14.474;2023-04-25T16:33:30;1.77;;;1.60;;